sensor_id;sensor_type;location;lat;lon;timestamp;P1;durP1;ratioP1;P2;durP2;ratioP2
77876;SDS011;67251;50.844;7.978;2023-08-30T00:00:52;8.07;;;3.85;;
77876;SDS011;67251;50.844;7.978;2023-08-30T00:03:18;7.07;;;3.83;;
77876;SDS011;67251;50.844;7.978;2023-08-30T00:05:43;7.47;;;3.33;;
77876;SDS011;67251;50.844;7.978;2023-08-30T00:08:09;9.27;;;3.72;;
77876;SDS011;67251;50.844;7.978;2023-08-30T00:10:34;9.63;;;4.15;;
77876;SDS011;67251;50.844;7.978;2023-08-30T00:13:00;10.90;;;3.78;;
77876;SDS011;67251;50.844;7.978;2023-08-30T00:15:25;9.35;;;3.97;;
77876;SDS011;67251;50.844;7.978;2023-08-30T00:17:50;9.20;;;4.00;;
77876;SDS011;67251;50.844;7.978;2023-08-30T00:20:19;11.25;;;3.90;;
77876;SDS011;67251;50.844;7.978;2023-08-30T00:22:45;9.65;;;4.68;;
77876;SDS011;67251;50.844;7.978;2023-08-30T00:25:10;8.73;;;3.80;;
77876;SDS011;67251;50.844;7.978;2023-08-30T00:27:35;8.30;;;3.65;;
77876;SDS011;67251;50.844;7.978;2023-08-30T00:30:01;8.45;;;4.25;;
77876;SDS011;67251;50.844;7.978;2023-08-30T00:32:26;11.73;;;3.67;;
77876;SDS011;67251;50.844;7.978;2023-08-30T00:34:51;10.25;;;4.13;;
77876;SDS011;67251;50.844;7.978;2023-08-30T00:37:17;8.90;;;3.90;;
77876;SDS011;67251;50.844;7.978;2023-08-30T00:39:42;8.52;;;3.88;;
77876;SDS011;67251;50.844;7.978;2023-08-30T00:42:08;8.52;;;3.97;;
77876;SDS011;67251;50.844;7.978;2023-08-30T00:44:34;10.15;;;4.22;;
77876;SDS011;67251;50.844;7.978;2023-08-30T00:47:00;8.50;;;4.13;;
77876;SDS011;67251;50.844;7.978;2023-08-30T00:49:27;10.00;;;4.68;;
77876;SDS011;67251;50.844;7.978;2023-08-30T00:51:54;8.13;;;4.25;;
77876;SDS011;67251;50.844;7.978;2023-08-30T00:54:20;9.65;;;3.88;;
77876;SDS011;67251;50.844;7.978;2023-08-30T00:56:46;7.45;;;3.55;;
77876;SDS011;67251;50.844;7.978;2023-08-30T00:59:12;7.60;;;3.90;;
77876;SDS011;67251;50.844;7.978;2023-08-30T01:01:37;7.75;;;4.00;;
77876;SDS011;67251;50.844;7.978;2023-08-30T01:04:04;8.30;;;4.20;;
77876;SDS011;67251;50.844;7.978;2023-08-30T01:06:29;9.32;;;3.80;;
77876;SDS011;67251;50.844;7.978;2023-08-30T01:08:54;10.07;;;4.20;;
77876;SDS011;67251;50.844;7.978;2023-08-30T01:14:21;10.88;;;4.10;;
77876;SDS011;67251;50.844;7.978;2023-08-30T01:16:50;13.05;;;4.30;;
77876;SDS011;67251;50.844;7.978;2023-08-30T01:19:27;9.73;;;3.95;;
77876;SDS011;67251;50.844;7.978;2023-08-30T01:22:31;10.52;;;4.15;;
77876;SDS011;67251;50.844;7.978;2023-08-30T01:25:20;10.63;;;4.05;;
77876;SDS011;67251;50.844;7.978;2023-08-30T01:27:48;8.73;;;4.22;;
77876;SDS011;67251;50.844;7.978;2023-08-30T01:30:15;12.32;;;4.35;;
77876;SDS011;67251;50.844;7.978;2023-08-30T01:32:42;11.93;;;4.45;;
77876;SDS011;67251;50.844;7.978;2023-08-30T01:35:09;14.77;;;5.05;;
77876;SDS011;67251;50.844;7.978;2023-08-30T01:37:35;11.05;;;4.32;;
77876;SDS011;67251;50.844;7.978;2023-08-30T01:40:02;8.10;;;3.97;;
77876;SDS011;67251;50.844;7.978;2023-08-30T01:42:30;9.38;;;4.20;;
77876;SDS011;67251;50.844;7.978;2023-08-30T01:50:22;7.38;;;3.63;;
77876;SDS011;67251;50.844;7.978;2023-08-30T01:52:48;9.55;;;4.25;;
77876;SDS011;67251;50.844;7.978;2023-08-30T01:55:15;9.43;;;4.38;;
77876;SDS011;67251;50.844;7.978;2023-08-30T01:57:43;8.35;;;3.90;;
77876;SDS011;67251;50.844;7.978;2023-08-30T02:00:08;9.20;;;3.75;;
77876;SDS011;67251;50.844;7.978;2023-08-30T02:02:34;8.70;;;3.92;;
77876;SDS011;67251;50.844;7.978;2023-08-30T02:04:59;11.43;;;4.57;;
77876;SDS011;67251;50.844;7.978;2023-08-30T02:07:28;7.53;;;4.22;;
77876;SDS011;67251;50.844;7.978;2023-08-30T02:10:36;9.20;;;4.13;;
77876;SDS011;67251;50.844;7.978;2023-08-30T02:13:05;8.50;;;4.13;;
77876;SDS011;67251;50.844;7.978;2023-08-30T02:15:31;9.00;;;4.22;;
77876;SDS011;67251;50.844;7.978;2023-08-30T02:17:59;9.82;;;4.10;;
77876;SDS011;67251;50.844;7.978;2023-08-30T02:20:25;8.40;;;4.28;;
77876;SDS011;67251;50.844;7.978;2023-08-30T02:22:51;7.60;;;4.20;;
77876;SDS011;67251;50.844;7.978;2023-08-30T02:25:16;10.00;;;3.97;;
77876;SDS011;67251;50.844;7.978;2023-08-30T02:27:42;6.70;;;3.95;;
77876;SDS011;67251;50.844;7.978;2023-08-30T02:30:07;7.80;;;3.63;;
77876;SDS011;67251;50.844;7.978;2023-08-30T02:32:33;7.15;;;4.03;;
77876;SDS011;67251;50.844;7.978;2023-08-30T02:34:59;9.77;;;4.30;;
77876;SDS011;67251;50.844;7.978;2023-08-30T02:37:24;9.30;;;4.15;;
77876;SDS011;67251;50.844;7.978;2023-08-30T02:39:50;8.30;;;4.15;;
77876;SDS011;67251;50.844;7.978;2023-08-30T02:45:37;8.88;;;4.20;;
77876;SDS011;67251;50.844;7.978;2023-08-30T02:48:02;7.28;;;3.67;;
77876;SDS011;67251;50.844;7.978;2023-08-30T02:50:28;10.50;;;3.92;;
77876;SDS011;67251;50.844;7.978;2023-08-30T02:52:53;9.75;;;4.05;;
77876;SDS011;67251;50.844;7.978;2023-08-30T02:55:19;9.35;;;3.80;;
77876;SDS011;67251;50.844;7.978;2023-08-30T02:57:44;8.50;;;4.07;;
77876;SDS011;67251;50.844;7.978;2023-08-30T03:00:11;8.90;;;3.80;;
77876;SDS011;67251;50.844;7.978;2023-08-30T03:02:37;8.88;;;3.90;;
77876;SDS011;67251;50.844;7.978;2023-08-30T03:05:02;8.60;;;3.83;;
77876;SDS011;67251;50.844;7.978;2023-08-30T03:07:29;8.27;;;4.10;;
77876;SDS011;67251;50.844;7.978;2023-08-30T03:09:54;8.05;;;3.65;;
77876;SDS011;67251;50.844;7.978;2023-08-30T03:12:20;7.80;;;4.10;;
77876;SDS011;67251;50.844;7.978;2023-08-30T03:14:46;10.27;;;4.38;;
77876;SDS011;67251;50.844;7.978;2023-08-30T03:17:11;9.70;;;4.25;;
77876;SDS011;67251;50.844;7.978;2023-08-30T03:19:37;10.60;;;4.25;;
77876;SDS011;67251;50.844;7.978;2023-08-30T03:22:02;8.98;;;4.20;;
77876;SDS011;67251;50.844;7.978;2023-08-30T03:24:28;9.65;;;4.93;;
77876;SDS011;67251;50.844;7.978;2023-08-30T03:26:53;11.55;;;4.75;;
77876;SDS011;67251;50.844;7.978;2023-08-30T03:29:18;7.72;;;4.32;;
77876;SDS011;67251;50.844;7.978;2023-08-30T03:31:44;11.57;;;4.43;;
77876;SDS011;67251;50.844;7.978;2023-08-30T03:34:09;8.63;;;3.63;;
77876;SDS011;67251;50.844;7.978;2023-08-30T03:36:35;9.80;;;3.97;;
77876;SDS011;67251;50.844;7.978;2023-08-30T03:39:00;9.02;;;4.07;;
77876;SDS011;67251;50.844;7.978;2023-08-30T03:41:25;10.07;;;4.28;;
77876;SDS011;67251;50.844;7.978;2023-08-30T03:43:51;12.13;;;4.53;;
77876;SDS011;67251;50.844;7.978;2023-08-30T03:46:16;9.25;;;3.75;;
77876;SDS011;67251;50.844;7.978;2023-08-30T03:48:41;9.35;;;4.00;;
77876;SDS011;67251;50.844;7.978;2023-08-30T03:51:07;9.02;;;3.95;;
77876;SDS011;67251;50.844;7.978;2023-08-30T03:53:32;8.60;;;4.07;;
77876;SDS011;67251;50.844;7.978;2023-08-30T03:55:58;9.52;;;4.18;;
77876;SDS011;67251;50.844;7.978;2023-08-30T03:58:24;9.25;;;4.40;;
77876;SDS011;67251;50.844;7.978;2023-08-30T04:00:49;8.57;;;4.07;;
77876;SDS011;67251;50.844;7.978;2023-08-30T04:03:15;9.95;;;3.97;;
77876;SDS011;67251;50.844;7.978;2023-08-30T04:05:40;9.30;;;3.97;;
77876;SDS011;67251;50.844;7.978;2023-08-30T04:08:07;10.38;;;4.82;;
77876;SDS011;67251;50.844;7.978;2023-08-30T04:10:36;11.27;;;5.03;;
77876;SDS011;67251;50.844;7.978;2023-08-30T04:13:03;13.30;;;4.55;;
77876;SDS011;67251;50.844;7.978;2023-08-30T04:15:32;11.63;;;4.18;;
77876;SDS011;67251;50.844;7.978;2023-08-30T04:18:04;14.07;;;5.40;;
77876;SDS011;67251;50.844;7.978;2023-08-30T04:20:31;12.38;;;5.40;;
77876;SDS011;67251;50.844;7.978;2023-08-30T04:22:57;10.65;;;4.60;;
77876;SDS011;67251;50.844;7.978;2023-08-30T04:25:23;11.02;;;4.35;;
77876;SDS011;67251;50.844;7.978;2023-08-30T04:27:49;11.13;;;4.53;;
77876;SDS011;67251;50.844;7.978;2023-08-30T04:30:15;10.52;;;4.88;;
77876;SDS011;67251;50.844;7.978;2023-08-30T04:32:41;10.98;;;4.72;;
77876;SDS011;67251;50.844;7.978;2023-08-30T04:35:07;12.40;;;4.90;;
77876;SDS011;67251;50.844;7.978;2023-08-30T04:37:32;11.80;;;5.40;;
77876;SDS011;67251;50.844;7.978;2023-08-30T04:39:58;12.73;;;5.05;;
77876;SDS011;67251;50.844;7.978;2023-08-30T04:42:23;10.52;;;4.43;;
77876;SDS011;67251;50.844;7.978;2023-08-30T04:44:49;8.15;;;4.15;;
77876;SDS011;67251;50.844;7.978;2023-08-30T04:47:15;9.88;;;4.38;;
77876;SDS011;67251;50.844;7.978;2023-08-30T04:49:40;11.15;;;4.75;;
77876;SDS011;67251;50.844;7.978;2023-08-30T04:52:06;12.93;;;4.80;;
77876;SDS011;67251;50.844;7.978;2023-08-30T04:54:31;12.50;;;4.72;;
77876;SDS011;67251;50.844;7.978;2023-08-30T04:56:56;11.02;;;4.65;;
77876;SDS011;67251;50.844;7.978;2023-08-30T04:59:22;12.52;;;5.35;;
77876;SDS011;67251;50.844;7.978;2023-08-30T05:01:47;13.45;;;4.65;;
77876;SDS011;67251;50.844;7.978;2023-08-30T05:04:12;12.20;;;4.53;;
77876;SDS011;67251;50.844;7.978;2023-08-30T05:06:38;9.88;;;4.05;;
77876;SDS011;67251;50.844;7.978;2023-08-30T05:09:03;10.75;;;5.25;;
77876;SDS011;67251;50.844;7.978;2023-08-30T05:11:29;11.02;;;5.03;;
77876;SDS011;67251;50.844;7.978;2023-08-30T05:13:54;11.00;;;5.15;;
77876;SDS011;67251;50.844;7.978;2023-08-30T05:16:20;13.38;;;5.00;;
77876;SDS011;67251;50.844;7.978;2023-08-30T05:18:45;13.13;;;5.28;;
77876;SDS011;67251;50.844;7.978;2023-08-30T05:21:13;11.15;;;5.65;;
77876;SDS011;67251;50.844;7.978;2023-08-30T05:23:38;9.60;;;4.40;;
77876;SDS011;67251;50.844;7.978;2023-08-30T05:26:06;10.02;;;4.60;;
77876;SDS011;67251;50.844;7.978;2023-08-30T05:28:32;12.55;;;4.93;;
77876;SDS011;67251;50.844;7.978;2023-08-30T05:30:58;10.70;;;5.43;;
77876;SDS011;67251;50.844;7.978;2023-08-30T05:33:24;11.05;;;4.68;;
77876;SDS011;67251;50.844;7.978;2023-08-30T05:35:49;10.70;;;4.82;;
77876;SDS011;67251;50.844;7.978;2023-08-30T05:38:14;11.10;;;5.13;;
77876;SDS011;67251;50.844;7.978;2023-08-30T05:40:40;12.75;;;5.70;;
77876;SDS011;67251;50.844;7.978;2023-08-30T05:43:08;13.30;;;5.68;;
77876;SDS011;67251;50.844;7.978;2023-08-30T05:45:33;11.45;;;4.88;;
77876;SDS011;67251;50.844;7.978;2023-08-30T05:47:58;11.98;;;5.55;;
77876;SDS011;67251;50.844;7.978;2023-08-30T05:50:24;10.23;;;5.07;;
77876;SDS011;67251;50.844;7.978;2023-08-30T05:52:49;10.70;;;5.20;;
77876;SDS011;67251;50.844;7.978;2023-08-30T05:55:16;10.35;;;4.57;;
77876;SDS011;67251;50.844;7.978;2023-08-30T05:57:42;9.27;;;4.80;;
77876;SDS011;67251;50.844;7.978;2023-08-30T06:00:07;10.50;;;4.63;;
77876;SDS011;67251;50.844;7.978;2023-08-30T06:02:34;10.88;;;4.88;;
77876;SDS011;67251;50.844;7.978;2023-08-30T06:05:02;13.68;;;5.32;;
77876;SDS011;67251;50.844;7.978;2023-08-30T06:07:27;10.85;;;4.82;;
77876;SDS011;67251;50.844;7.978;2023-08-30T06:09:53;12.10;;;5.20;;
77876;SDS011;67251;50.844;7.978;2023-08-30T06:12:18;11.07;;;4.93;;
77876;SDS011;67251;50.844;7.978;2023-08-30T06:14:43;9.95;;;4.93;;
77876;SDS011;67251;50.844;7.978;2023-08-30T06:17:15;10.27;;;4.80;;
77876;SDS011;67251;50.844;7.978;2023-08-30T06:19:40;10.27;;;4.70;;
77876;SDS011;67251;50.844;7.978;2023-08-30T06:22:05;10.27;;;4.80;;
77876;SDS011;67251;50.844;7.978;2023-08-30T06:24:31;12.52;;;4.80;;
77876;SDS011;67251;50.844;7.978;2023-08-30T06:26:56;10.93;;;4.53;;
77876;SDS011;67251;50.844;7.978;2023-08-30T06:29:21;11.02;;;4.80;;
77876;SDS011;67251;50.844;7.978;2023-08-30T06:31:47;9.07;;;4.43;;
77876;SDS011;67251;50.844;7.978;2023-08-30T06:34:12;9.65;;;4.35;;
77876;SDS011;67251;50.844;7.978;2023-08-30T06:36:37;11.73;;;4.38;;
77876;SDS011;67251;50.844;7.978;2023-08-30T06:39:03;10.20;;;4.80;;
77876;SDS011;67251;50.844;7.978;2023-08-30T06:41:28;8.60;;;4.40;;
77876;SDS011;67251;50.844;7.978;2023-08-30T06:43:54;11.63;;;4.60;;
77876;SDS011;67251;50.844;7.978;2023-08-30T06:46:19;9.57;;;4.57;;
77876;SDS011;67251;50.844;7.978;2023-08-30T06:48:45;8.27;;;4.32;;
77876;SDS011;67251;50.844;7.978;2023-08-30T06:51:10;9.00;;;4.32;;
77876;SDS011;67251;50.844;7.978;2023-08-30T06:53:35;10.15;;;4.13;;
77876;SDS011;67251;50.844;7.978;2023-08-30T06:56:01;11.38;;;4.65;;
77876;SDS011;67251;50.844;7.978;2023-08-30T06:58:26;11.43;;;5.05;;
77876;SDS011;67251;50.844;7.978;2023-08-30T07:00:52;9.05;;;4.38;;
77876;SDS011;67251;50.844;7.978;2023-08-30T07:03:18;8.77;;;4.95;;
77876;SDS011;67251;50.844;7.978;2023-08-30T07:05:43;8.98;;;4.20;;
77876;SDS011;67251;50.844;7.978;2023-08-30T07:08:09;10.30;;;4.53;;
77876;SDS011;67251;50.844;7.978;2023-08-30T07:10:34;9.05;;;4.22;;
77876;SDS011;67251;50.844;7.978;2023-08-30T07:13:00;10.07;;;4.82;;
77876;SDS011;67251;50.844;7.978;2023-08-30T07:15:25;11.10;;;4.57;;
77876;SDS011;67251;50.844;7.978;2023-08-30T07:17:51;7.80;;;4.00;;
77876;SDS011;67251;50.844;7.978;2023-08-30T07:20:16;11.25;;;5.15;;
77876;SDS011;67251;50.844;7.978;2023-08-30T07:22:42;10.95;;;5.40;;
77876;SDS011;67251;50.844;7.978;2023-08-30T07:25:07;11.02;;;5.13;;
77876;SDS011;67251;50.844;7.978;2023-08-30T07:27:35;11.77;;;5.38;;
77876;SDS011;67251;50.844;7.978;2023-08-30T07:30:00;10.65;;;4.57;;
77876;SDS011;67251;50.844;7.978;2023-08-30T07:32:26;10.60;;;5.03;;
77876;SDS011;67251;50.844;7.978;2023-08-30T07:34:52;9.55;;;5.32;;
77876;SDS011;67251;50.844;7.978;2023-08-30T07:37:20;13.75;;;6.10;;
77876;SDS011;67251;50.844;7.978;2023-08-30T07:39:46;11.82;;;6.05;;
77876;SDS011;67251;50.844;7.978;2023-08-30T07:42:12;10.45;;;5.85;;
77876;SDS011;67251;50.844;7.978;2023-08-30T07:44:38;9.18;;;4.65;;
77876;SDS011;67251;50.844;7.978;2023-08-30T07:47:04;10.43;;;5.25;;
77876;SDS011;67251;50.844;7.978;2023-08-30T07:49:29;13.48;;;6.18;;
77876;SDS011;67251;50.844;7.978;2023-08-30T07:51:54;12.85;;;6.00;;
77876;SDS011;67251;50.844;7.978;2023-08-30T07:54:20;11.10;;;5.93;;
77876;SDS011;67251;50.844;7.978;2023-08-30T07:56:45;9.93;;;5.50;;
77876;SDS011;67251;50.844;7.978;2023-08-30T07:59:11;13.93;;;5.97;;
77876;SDS011;67251;50.844;7.978;2023-08-30T08:01:36;9.43;;;5.45;;
77876;SDS011;67251;50.844;7.978;2023-08-30T08:04:01;12.93;;;6.50;;
77876;SDS011;67251;50.844;7.978;2023-08-30T08:06:27;13.63;;;6.47;;
77876;SDS011;67251;50.844;7.978;2023-08-30T08:08:53;12.48;;;6.35;;
77876;SDS011;67251;50.844;7.978;2023-08-30T08:11:18;13.25;;;7.32;;
77876;SDS011;67251;50.844;7.978;2023-08-30T08:13:43;12.60;;;6.85;;
77876;SDS011;67251;50.844;7.978;2023-08-30T08:16:09;10.27;;;6.63;;
77876;SDS011;67251;50.844;7.978;2023-08-30T08:18:34;12.57;;;6.70;;
77876;SDS011;67251;50.844;7.978;2023-08-30T08:20:59;11.23;;;6.10;;
77876;SDS011;67251;50.844;7.978;2023-08-30T08:23:25;11.88;;;6.55;;
77876;SDS011;67251;50.844;7.978;2023-08-30T08:25:56;10.93;;;6.22;;
77876;SDS011;67251;50.844;7.978;2023-08-30T08:28:22;11.57;;;7.05;;
77876;SDS011;67251;50.844;7.978;2023-08-30T08:30:48;12.20;;;6.72;;
77876;SDS011;67251;50.844;7.978;2023-08-30T08:33:16;14.68;;;7.28;;
77876;SDS011;67251;50.844;7.978;2023-08-30T08:35:45;13.10;;;8.68;;
77876;SDS011;67251;50.844;7.978;2023-08-30T08:38:13;13.82;;;7.55;;
77876;SDS011;67251;50.844;7.978;2023-08-30T08:40:38;14.57;;;8.93;;
77876;SDS011;67251;50.844;7.978;2023-08-30T08:43:04;13.80;;;8.93;;
77876;SDS011;67251;50.844;7.978;2023-08-30T08:45:31;11.90;;;7.47;;
77876;SDS011;67251;50.844;7.978;2023-08-30T08:47:59;13.73;;;8.55;;
77876;SDS011;67251;50.844;7.978;2023-08-30T08:50:27;13.85;;;8.38;;
77876;SDS011;67251;50.844;7.978;2023-08-30T08:52:54;13.05;;;8.23;;
77876;SDS011;67251;50.844;7.978;2023-08-30T08:55:21;14.48;;;7.57;;
77876;SDS011;67251;50.844;7.978;2023-08-30T08:57:48;11.52;;;7.30;;
77876;SDS011;67251;50.844;7.978;2023-08-30T09:00:13;11.88;;;6.65;;
77876;SDS011;67251;50.844;7.978;2023-08-30T09:02:41;10.52;;;6.03;;
77876;SDS011;67251;50.844;7.978;2023-08-30T09:05:07;10.63;;;6.47;;
77876;SDS011;67251;50.844;7.978;2023-08-30T09:07:33;9.98;;;5.70;;
77876;SDS011;67251;50.844;7.978;2023-08-30T09:10:01;8.30;;;5.38;;
77876;SDS011;67251;50.844;7.978;2023-08-30T09:12:26;8.00;;;4.65;;
77876;SDS011;67251;50.844;7.978;2023-08-30T09:14:55;8.02;;;4.35;;
77876;SDS011;67251;50.844;7.978;2023-08-30T09:17:21;6.55;;;3.70;;
77876;SDS011;67251;50.844;7.978;2023-08-30T09:19:46;6.82;;;3.30;;
77876;SDS011;67251;50.844;7.978;2023-08-30T09:22:12;8.13;;;3.33;;
77876;SDS011;67251;50.844;7.978;2023-08-30T09:24:41;7.03;;;3.00;;
77876;SDS011;67251;50.844;7.978;2023-08-30T09:27:07;7.03;;;3.00;;
77876;SDS011;67251;50.844;7.978;2023-08-30T09:29:32;5.50;;;2.90;;
77876;SDS011;67251;50.844;7.978;2023-08-30T09:31:58;6.53;;;3.03;;
77876;SDS011;67251;50.844;7.978;2023-08-30T09:34:23;7.03;;;3.72;;
77876;SDS011;67251;50.844;7.978;2023-08-30T09:36:50;5.38;;;3.03;;
77876;SDS011;67251;50.844;7.978;2023-08-30T09:39:16;7.20;;;2.90;;
77876;SDS011;67251;50.844;7.978;2023-08-30T09:41:42;6.30;;;2.70;;
77876;SDS011;67251;50.844;7.978;2023-08-30T09:44:14;5.95;;;2.45;;
77876;SDS011;67251;50.844;7.978;2023-08-30T09:46:50;4.68;;;2.08;;
77876;SDS011;67251;50.844;7.978;2023-08-30T09:49:23;4.40;;;2.00;;
77876;SDS011;67251;50.844;7.978;2023-08-30T09:51:51;4.15;;;1.95;;
77876;SDS011;67251;50.844;7.978;2023-08-30T09:54:21;4.65;;;1.77;;
77876;SDS011;67251;50.844;7.978;2023-08-30T09:56:50;5.32;;;1.80;;
77876;SDS011;67251;50.844;7.978;2023-08-30T09:59:17;4.25;;;1.80;;
77876;SDS011;67251;50.844;7.978;2023-08-30T10:01:43;3.85;;;1.52;;
77876;SDS011;67251;50.844;7.978;2023-08-30T10:04:11;5.05;;;1.90;;
77876;SDS011;67251;50.844;7.978;2023-08-30T10:06:37;4.90;;;1.77;;
77876;SDS011;67251;50.844;7.978;2023-08-30T10:09:03;3.95;;;2.20;;
77876;SDS011;67251;50.844;7.978;2023-08-30T10:11:30;5.57;;;2.00;;
77876;SDS011;67251;50.844;7.978;2023-08-30T10:13:59;6.45;;;2.13;;
77876;SDS011;67251;50.844;7.978;2023-08-30T10:16:26;4.15;;;1.83;;
77876;SDS011;67251;50.844;7.978;2023-08-30T10:18:54;5.57;;;2.25;;
77876;SDS011;67251;50.844;7.978;2023-08-30T10:21:25;6.15;;;2.22;;
77876;SDS011;67251;50.844;7.978;2023-08-30T10:23:52;7.32;;;2.13;;
77876;SDS011;67251;50.844;7.978;2023-08-30T10:26:21;4.30;;;1.90;;
77876;SDS011;67251;50.844;7.978;2023-08-30T10:28:49;4.25;;;1.65;;
77876;SDS011;67251;50.844;7.978;2023-08-30T10:31:17;5.47;;;2.08;;
77876;SDS011;67251;50.844;7.978;2023-08-30T10:33:55;5.18;;;1.77;;
77876;SDS011;67251;50.844;7.978;2023-08-30T10:36:25;6.00;;;2.20;;
77876;SDS011;67251;50.844;7.978;2023-08-30T10:38:52;5.88;;;1.95;;
77876;SDS011;67251;50.844;7.978;2023-08-30T10:41:22;3.85;;;1.67;;
77876;SDS011;67251;50.844;7.978;2023-08-30T10:43:50;4.53;;;2.00;;
77876;SDS011;67251;50.844;7.978;2023-08-30T10:46:17;5.50;;;2.08;;
77876;SDS011;67251;50.844;7.978;2023-08-30T10:48:43;6.10;;;2.70;;
77876;SDS011;67251;50.844;7.978;2023-08-30T10:51:23;4.50;;;2.03;;
77876;SDS011;67251;50.844;7.978;2023-08-30T10:54:09;4.72;;;2.00;;
77876;SDS011;67251;50.844;7.978;2023-08-30T10:56:46;4.95;;;2.28;;
77876;SDS011;67251;50.844;7.978;2023-08-30T10:59:23;5.20;;;2.17;;
77876;SDS011;67251;50.844;7.978;2023-08-30T11:01:50;5.50;;;1.70;;
77876;SDS011;67251;50.844;7.978;2023-08-30T11:04:17;7.10;;;2.40;;
77876;SDS011;67251;50.844;7.978;2023-08-30T11:06:43;5.72;;;2.55;;
77876;SDS011;67251;50.844;7.978;2023-08-30T11:09:11;6.05;;;2.58;;
77876;SDS011;67251;50.844;7.978;2023-08-30T11:11:37;5.85;;;2.30;;
77876;SDS011;67251;50.844;7.978;2023-08-30T11:14:04;5.72;;;2.40;;
77876;SDS011;67251;50.844;7.978;2023-08-30T11:16:31;4.80;;;1.95;;
77876;SDS011;67251;50.844;7.978;2023-08-30T11:18:56;5.65;;;2.40;;
77876;SDS011;67251;50.844;7.978;2023-08-30T11:21:21;5.70;;;2.30;;
77876;SDS011;67251;50.844;7.978;2023-08-30T11:23:47;6.70;;;2.25;;
77876;SDS011;67251;50.844;7.978;2023-08-30T11:26:12;6.13;;;2.63;;
77876;SDS011;67251;50.844;7.978;2023-08-30T11:28:38;5.00;;;2.33;;
77876;SDS011;67251;50.844;7.978;2023-08-30T11:31:08;5.70;;;2.20;;
77876;SDS011;67251;50.844;7.978;2023-08-30T11:33:34;6.10;;;2.30;;
77876;SDS011;67251;50.844;7.978;2023-08-30T11:35:59;6.10;;;2.65;;
77876;SDS011;67251;50.844;7.978;2023-08-30T11:38:26;5.05;;;2.50;;
77876;SDS011;67251;50.844;7.978;2023-08-30T11:40:51;6.30;;;2.60;;
77876;SDS011;67251;50.844;7.978;2023-08-30T11:43:17;5.38;;;2.42;;
77876;SDS011;67251;50.844;7.978;2023-08-30T11:45:42;6.40;;;2.63;;
77876;SDS011;67251;50.844;7.978;2023-08-30T11:48:07;5.97;;;2.80;;
77876;SDS011;67251;50.844;7.978;2023-08-30T11:50:33;5.13;;;2.55;;
77876;SDS011;67251;50.844;7.978;2023-08-30T11:53:00;5.55;;;2.72;;
77876;SDS011;67251;50.844;7.978;2023-08-30T11:55:25;4.80;;;2.05;;
77876;SDS011;67251;50.844;7.978;2023-08-30T11:57:51;7.43;;;2.45;;
77876;SDS011;67251;50.844;7.978;2023-08-30T12:00:18;6.00;;;2.55;;
77876;SDS011;67251;50.844;7.978;2023-08-30T12:02:44;5.65;;;2.58;;
77876;SDS011;67251;50.844;7.978;2023-08-30T12:05:14;5.03;;;2.45;;
77876;SDS011;67251;50.844;7.978;2023-08-30T12:07:40;6.13;;;2.50;;
77876;SDS011;67251;50.844;7.978;2023-08-30T12:10:06;5.13;;;2.33;;
77876;SDS011;67251;50.844;7.978;2023-08-30T12:12:32;7.80;;;2.83;;
77876;SDS011;67251;50.844;7.978;2023-08-30T12:14:58;5.82;;;2.50;;
77876;SDS011;67251;50.844;7.978;2023-08-30T12:17:24;5.80;;;2.67;;
77876;SDS011;67251;50.844;7.978;2023-08-30T12:19:56;6.00;;;2.47;;
77876;SDS011;67251;50.844;7.978;2023-08-30T12:22:22;5.18;;;2.35;;
77876;SDS011;67251;50.844;7.978;2023-08-30T12:24:48;5.78;;;2.70;;
77876;SDS011;67251;50.844;7.978;2023-08-30T12:27:13;5.30;;;2.25;;
77876;SDS011;67251;50.844;7.978;2023-08-30T12:29:39;6.40;;;2.70;;
77876;SDS011;67251;50.844;7.978;2023-08-30T12:32:05;6.00;;;2.80;;
77876;SDS011;67251;50.844;7.978;2023-08-30T12:34:31;6.68;;;2.28;;
77876;SDS011;67251;50.844;7.978;2023-08-30T12:36:56;4.88;;;2.33;;
77876;SDS011;67251;50.844;7.978;2023-08-30T12:39:21;4.85;;;2.42;;
77876;SDS011;67251;50.844;7.978;2023-08-30T12:41:47;4.85;;;2.50;;
77876;SDS011;67251;50.844;7.978;2023-08-30T12:44:12;6.13;;;2.70;;
77876;SDS011;67251;50.844;7.978;2023-08-30T12:46:37;4.78;;;2.20;;
77876;SDS011;67251;50.844;7.978;2023-08-30T12:49:03;6.70;;;2.67;;
77876;SDS011;67251;50.844;7.978;2023-08-30T12:51:28;5.35;;;2.15;;
77876;SDS011;67251;50.844;7.978;2023-08-30T12:53:55;5.75;;;2.00;;
77876;SDS011;67251;50.844;7.978;2023-08-30T12:56:20;6.18;;;2.42;;
77876;SDS011;67251;50.844;7.978;2023-08-30T12:58:46;6.30;;;2.60;;
77876;SDS011;67251;50.844;7.978;2023-08-30T13:01:11;5.50;;;2.53;;
77876;SDS011;67251;50.844;7.978;2023-08-30T13:03:36;4.40;;;2.00;;
77876;SDS011;67251;50.844;7.978;2023-08-30T13:06:02;6.45;;;2.08;;
77876;SDS011;67251;50.844;7.978;2023-08-30T13:08:29;5.13;;;2.30;;
77876;SDS011;67251;50.844;7.978;2023-08-30T13:10:54;5.30;;;2.30;;
77876;SDS011;67251;50.844;7.978;2023-08-30T13:13:20;5.82;;;2.28;;
77876;SDS011;67251;50.844;7.978;2023-08-30T13:15:46;4.70;;;1.90;;
77876;SDS011;67251;50.844;7.978;2023-08-30T13:18:13;4.97;;;2.13;;
77876;SDS011;67251;50.844;7.978;2023-08-30T13:20:40;5.90;;;2.33;;
77876;SDS011;67251;50.844;7.978;2023-08-30T13:23:06;5.95;;;2.72;;
77876;SDS011;67251;50.844;7.978;2023-08-30T13:25:31;5.75;;;2.17;;
77876;SDS011;67251;50.844;7.978;2023-08-30T13:27:56;4.88;;;2.30;;
77876;SDS011;67251;50.844;7.978;2023-08-30T13:30:22;8.43;;;2.40;;
77876;SDS011;67251;50.844;7.978;2023-08-30T13:32:47;6.05;;;2.22;;
77876;SDS011;67251;50.844;7.978;2023-08-30T13:35:12;7.65;;;2.50;;
77876;SDS011;67251;50.844;7.978;2023-08-30T13:37:38;5.15;;;2.58;;
77876;SDS011;67251;50.844;7.978;2023-08-30T13:40:03;5.10;;;2.30;;
77876;SDS011;67251;50.844;7.978;2023-08-30T13:42:31;5.93;;;2.55;;
77876;SDS011;67251;50.844;7.978;2023-08-30T13:44:57;7.53;;;2.88;;
77876;SDS011;67251;50.844;7.978;2023-08-30T13:47:22;6.50;;;2.75;;
77876;SDS011;67251;50.844;7.978;2023-08-30T13:49:48;6.47;;;2.67;;
77876;SDS011;67251;50.844;7.978;2023-08-30T13:52:13;6.47;;;2.38;;
77876;SDS011;67251;50.844;7.978;2023-08-30T13:54:39;5.78;;;2.33;;
77876;SDS011;67251;50.844;7.978;2023-08-30T13:57:04;5.55;;;2.70;;
77876;SDS011;67251;50.844;7.978;2023-08-30T13:59:30;6.32;;;2.60;;
77876;SDS011;67251;50.844;7.978;2023-08-30T14:01:55;5.38;;;2.70;;
77876;SDS011;67251;50.844;7.978;2023-08-30T14:04:23;5.90;;;2.90;;
77876;SDS011;67251;50.844;7.978;2023-08-30T14:06:49;7.35;;;3.08;;
77876;SDS011;67251;50.844;7.978;2023-08-30T14:09:15;4.90;;;2.60;;
77876;SDS011;67251;50.844;7.978;2023-08-30T14:11:40;6.43;;;2.72;;
77876;SDS011;67251;50.844;7.978;2023-08-30T14:14:06;5.65;;;2.60;;
77876;SDS011;67251;50.844;7.978;2023-08-30T14:16:32;5.63;;;2.53;;
77876;SDS011;67251;50.844;7.978;2023-08-30T14:18:58;6.50;;;3.30;;
77876;SDS011;67251;50.844;7.978;2023-08-30T14:21:25;6.60;;;3.03;;
77876;SDS011;67251;50.844;7.978;2023-08-30T14:23:51;6.80;;;2.95;;
77876;SDS011;67251;50.844;7.978;2023-08-30T14:26:17;6.57;;;2.72;;
77876;SDS011;67251;50.844;7.978;2023-08-30T14:28:42;5.70;;;2.83;;
77876;SDS011;67251;50.844;7.978;2023-08-30T14:31:11;6.82;;;2.90;;
77876;SDS011;67251;50.844;7.978;2023-08-30T14:36:03;4.82;;;2.30;;
77876;SDS011;67251;50.844;7.978;2023-08-30T14:38:33;5.88;;;2.42;;
77876;SDS011;67251;50.844;7.978;2023-08-30T14:40:58;5.45;;;2.33;;
77876;SDS011;67251;50.844;7.978;2023-08-30T14:43:25;4.57;;;2.20;;
77876;SDS011;67251;50.844;7.978;2023-08-30T14:45:50;4.30;;;2.13;;
77876;SDS011;67251;50.844;7.978;2023-08-30T14:48:16;4.53;;;2.03;;
77876;SDS011;67251;50.844;7.978;2023-08-30T14:50:41;4.07;;;1.70;;
77876;SDS011;67251;50.844;7.978;2023-08-30T14:53:07;5.30;;;1.80;;